sensor_id;sensor_type;location;lat;lon;timestamp;P1;durP1;ratioP1;P2;durP2;ratioP2
74658;SDS011;63186;51.204;6.536;2022-09-30T00:01:34;14.10;;;9.60;;
74658;SDS011;63186;51.204;6.536;2022-09-30T00:04:00;13.90;;;8.45;;
74658;SDS011;63186;51.204;6.536;2022-09-30T00:06:26;14.25;;;9.10;;
74658;SDS011;63186;51.204;6.536;2022-09-30T00:08:53;13.77;;;9.40;;
74658;SDS011;63186;51.204;6.536;2022-09-30T00:11:21;15.07;;;10.57;;
74658;SDS011;63186;51.204;6.536;2022-09-30T00:13:49;16.08;;;10.38;;
74658;SDS011;63186;51.204;6.536;2022-09-30T00:16:16;22.33;;;11.05;;
74658;SDS011;63186;51.204;6.536;2022-09-30T00:18:43;17.75;;;9.30;;
74658;SDS011;63186;51.204;6.536;2022-09-30T00:21:09;16.90;;;9.80;;
74658;SDS011;63186;51.204;6.536;2022-09-30T00:23:36;13.63;;;8.82;;
74658;SDS011;63186;51.204;6.536;2022-09-30T00:26:04;14.73;;;9.25;;
74658;SDS011;63186;51.204;6.536;2022-09-30T00:30:58;13.05;;;9.00;;
74658;SDS011;63186;51.204;6.536;2022-09-30T00:33:24;16.10;;;9.40;;
74658;SDS011;63186;51.204;6.536;2022-09-30T00:35:49;13.87;;;8.93;;
74658;SDS011;63186;51.204;6.536;2022-09-30T00:38:14;14.23;;;9.30;;
74658;SDS011;63186;51.204;6.536;2022-09-30T00:40:40;15.75;;;9.02;;
74658;SDS011;63186;51.204;6.536;2022-09-30T00:43:15;16.93;;;9.73;;
74658;SDS011;63186;51.204;6.536;2022-09-30T00:45:47;15.73;;;8.68;;
74658;SDS011;63186;51.204;6.536;2022-09-30T00:48:22;17.67;;;9.15;;
74658;SDS011;63186;51.204;6.536;2022-09-30T00:50:53;15.38;;;10.38;;
74658;SDS011;63186;51.204;6.536;2022-09-30T00:53:24;16.52;;;10.10;;
74658;SDS011;63186;51.204;6.536;2022-09-30T00:56:03;16.25;;;10.13;;
74658;SDS011;63186;51.204;6.536;2022-09-30T00:58:54;15.00;;;9.63;;
74658;SDS011;63186;51.204;6.536;2022-09-30T01:01:20;14.48;;;9.07;;
74658;SDS011;63186;51.204;6.536;2022-09-30T01:06:14;10.48;;;7.00;;
74658;SDS011;63186;51.204;6.536;2022-09-30T01:08:40;15.52;;;8.85;;
74658;SDS011;63186;51.204;6.536;2022-09-30T01:11:05;16.33;;;8.43;;
74658;SDS011;63186;51.204;6.536;2022-09-30T01:13:31;13.02;;;9.00;;
74658;SDS011;63186;51.204;6.536;2022-09-30T01:18:52;14.77;;;8.13;;
74658;SDS011;63186;51.204;6.536;2022-09-30T01:26:36;15.95;;;8.27;;
74658;SDS011;63186;51.204;6.536;2022-09-30T01:35:15;14.23;;;8.10;;
74658;SDS011;63186;51.204;6.536;2022-09-30T01:49:15;12.60;;;7.63;;
74658;SDS011;63186;51.204;6.536;2022-09-30T01:52:15;12.68;;;7.10;;
74658;SDS011;63186;51.204;6.536;2022-09-30T01:54:49;14.95;;;7.32;;
74658;SDS011;63186;51.204;6.536;2022-09-30T01:57:32;18.30;;;7.55;;
74658;SDS011;63186;51.204;6.536;2022-09-30T02:00:07;9.73;;;6.63;;
74658;SDS011;63186;51.204;6.536;2022-09-30T02:02:43;12.02;;;6.85;;
74658;SDS011;63186;51.204;6.536;2022-09-30T02:05:18;13.18;;;7.47;;
74658;SDS011;63186;51.204;6.536;2022-09-30T02:07:50;14.45;;;7.70;;
74658;SDS011;63186;51.204;6.536;2022-09-30T02:10:31;13.70;;;6.95;;
74658;SDS011;63186;51.204;6.536;2022-09-30T02:13:05;17.63;;;8.00;;
74658;SDS011;63186;51.204;6.536;2022-09-30T02:15:38;17.25;;;7.65;;
74658;SDS011;63186;51.204;6.536;2022-09-30T02:18:54;15.80;;;8.32;;
74658;SDS011;63186;51.204;6.536;2022-09-30T02:21:03;10.63;;;6.07;;
74658;SDS011;63186;51.204;6.536;2022-09-30T02:23:33;19.63;;;5.78;;
74658;SDS011;63186;51.204;6.536;2022-09-30T02:26:17;11.50;;;6.18;;
74658;SDS011;63186;51.204;6.536;2022-09-30T02:28:51;15.88;;;6.88;;
74658;SDS011;63186;51.204;6.536;2022-09-30T02:31:20;13.07;;;7.15;;
74658;SDS011;63186;51.204;6.536;2022-09-30T02:33:52;12.65;;;7.47;;
74658;SDS011;63186;51.204;6.536;2022-09-30T02:36:30;12.73;;;7.65;;
74658;SDS011;63186;51.204;6.536;2022-09-30T02:39:05;13.77;;;7.78;;
74658;SDS011;63186;51.204;6.536;2022-09-30T02:41:37;15.82;;;7.35;;
74658;SDS011;63186;51.204;6.536;2022-09-30T02:44:08;14.95;;;7.60;;
74658;SDS011;63186;51.204;6.536;2022-09-30T02:54:31;14.35;;;6.38;;
74658;SDS011;63186;51.204;6.536;2022-09-30T02:57:04;9.38;;;5.55;;
74658;SDS011;63186;51.204;6.536;2022-09-30T02:59:45;12.07;;;5.35;;
74658;SDS011;63186;51.204;6.536;2022-09-30T03:02:15;11.10;;;5.93;;
74658;SDS011;63186;51.204;6.536;2022-09-30T03:04:40;15.20;;;7.57;;
74658;SDS011;63186;51.204;6.536;2022-09-30T03:07:07;16.25;;;8.38;;
74658;SDS011;63186;51.204;6.536;2022-09-30T03:09:34;16.15;;;7.10;;
74658;SDS011;63186;51.204;6.536;2022-09-30T03:12:03;14.20;;;7.00;;
74658;SDS011;63186;51.204;6.536;2022-09-30T03:14:39;11.05;;;6.53;;
74658;SDS011;63186;51.204;6.536;2022-09-30T03:26:17;16.33;;;7.78;;
74658;SDS011;63186;51.204;6.536;2022-09-30T03:31:39;17.13;;;8.20;;
74658;SDS011;63186;51.204;6.536;2022-09-30T03:37:13;13.18;;;7.07;;
74658;SDS011;63186;51.204;6.536;2022-09-30T03:42:35;12.55;;;6.60;;
74658;SDS011;63186;51.204;6.536;2022-09-30T03:47:34;10.05;;;6.40;;
74658;SDS011;63186;51.204;6.536;2022-09-30T03:50:06;13.80;;;6.13;;
74658;SDS011;63186;51.204;6.536;2022-09-30T03:52:33;14.13;;;8.02;;
74658;SDS011;63186;51.204;6.536;2022-09-30T03:55:00;10.88;;;7.07;;
74658;SDS011;63186;51.204;6.536;2022-09-30T03:57:29;14.40;;;7.85;;
74658;SDS011;63186;51.204;6.536;2022-09-30T03:59:55;14.68;;;7.45;;
74658;SDS011;63186;51.204;6.536;2022-09-30T04:02:21;20.00;;;8.95;;
74658;SDS011;63186;51.204;6.536;2022-09-30T04:04:47;17.38;;;7.82;;
74658;SDS011;63186;51.204;6.536;2022-09-30T04:07:12;15.60;;;8.37;;
74658;SDS011;63186;51.204;6.536;2022-09-30T04:09:38;15.35;;;8.82;;
74658;SDS011;63186;51.204;6.536;2022-09-30T04:12:04;12.80;;;8.38;;
74658;SDS011;63186;51.204;6.536;2022-09-30T04:14:31;14.82;;;8.27;;
74658;SDS011;63186;51.204;6.536;2022-09-30T04:16:56;14.93;;;9.07;;
74658;SDS011;63186;51.204;6.536;2022-09-30T04:19:22;15.95;;;8.80;;
74658;SDS011;63186;51.204;6.536;2022-09-30T04:21:49;17.60;;;9.90;;
74658;SDS011;63186;51.204;6.536;2022-09-30T04:24:15;12.48;;;8.52;;
74658;SDS011;63186;51.204;6.536;2022-09-30T04:26:40;14.83;;;9.10;;
74658;SDS011;63186;51.204;6.536;2022-09-30T04:29:05;16.87;;;9.07;;
74658;SDS011;63186;51.204;6.536;2022-09-30T04:31:31;14.20;;;8.50;;
74658;SDS011;63186;51.204;6.536;2022-09-30T04:33:56;14.40;;;7.80;;
74658;SDS011;63186;51.204;6.536;2022-09-30T04:36:21;12.43;;;7.83;;
74658;SDS011;63186;51.204;6.536;2022-09-30T04:38:47;12.65;;;7.43;;
74658;SDS011;63186;51.204;6.536;2022-09-30T04:41:13;14.60;;;8.48;;
74658;SDS011;63186;51.204;6.536;2022-09-30T04:43:43;12.88;;;7.88;;
74658;SDS011;63186;51.204;6.536;2022-09-30T04:46:11;12.45;;;9.00;;
74658;SDS011;63186;51.204;6.536;2022-09-30T04:48:36;13.93;;;8.23;;
74658;SDS011;63186;51.204;6.536;2022-09-30T04:51:02;14.60;;;9.50;;
74658;SDS011;63186;51.204;6.536;2022-09-30T04:53:27;15.18;;;9.68;;
74658;SDS011;63186;51.204;6.536;2022-09-30T04:55:59;16.60;;;9.63;;
74658;SDS011;63186;51.204;6.536;2022-09-30T04:58:25;13.57;;;8.63;;
74658;SDS011;63186;51.204;6.536;2022-09-30T05:00:58;14.20;;;8.15;;
74658;SDS011;63186;51.204;6.536;2022-09-30T05:03:34;15.82;;;8.63;;
74658;SDS011;63186;51.204;6.536;2022-09-30T05:06:00;13.43;;;8.32;;
74658;SDS011;63186;51.204;6.536;2022-09-30T05:08:27;15.77;;;8.07;;
74658;SDS011;63186;51.204;6.536;2022-09-30T05:10:53;12.60;;;8.18;;
74658;SDS011;63186;51.204;6.536;2022-09-30T05:13:23;15.10;;;8.02;;
74658;SDS011;63186;51.204;6.536;2022-09-30T05:15:49;13.00;;;8.35;;
74658;SDS011;63186;51.204;6.536;2022-09-30T05:18:14;13.52;;;8.13;;
74658;SDS011;63186;51.204;6.536;2022-09-30T05:20:40;15.30;;;8.98;;
74658;SDS011;63186;51.204;6.536;2022-09-30T05:23:06;13.27;;;8.75;;
74658;SDS011;63186;51.204;6.536;2022-09-30T05:25:31;12.93;;;8.27;;
74658;SDS011;63186;51.204;6.536;2022-09-30T05:27:58;15.07;;;8.57;;
74658;SDS011;63186;51.204;6.536;2022-09-30T05:30:24;14.20;;;8.77;;
74658;SDS011;63186;51.204;6.536;2022-09-30T05:32:49;15.43;;;9.23;;
74658;SDS011;63186;51.204;6.536;2022-09-30T05:35:15;14.00;;;8.25;;
74658;SDS011;63186;51.204;6.536;2022-09-30T05:37:40;12.18;;;5.72;;
74658;SDS011;63186;51.204;6.536;2022-09-30T05:40:06;10.17;;;5.83;;
74658;SDS011;63186;51.204;6.536;2022-09-30T05:42:32;10.52;;;6.28;;
74658;SDS011;63186;51.204;6.536;2022-09-30T05:45:00;13.02;;;7.80;;
74658;SDS011;63186;51.204;6.536;2022-09-30T05:47:26;14.48;;;8.65;;
74658;SDS011;63186;51.204;6.536;2022-09-30T05:49:51;11.87;;;7.23;;
74658;SDS011;63186;51.204;6.536;2022-09-30T05:52:16;11.10;;;6.97;;
74658;SDS011;63186;51.204;6.536;2022-09-30T05:54:42;13.77;;;7.87;;
74658;SDS011;63186;51.204;6.536;2022-09-30T05:57:07;14.50;;;8.77;;
74658;SDS011;63186;51.204;6.536;2022-09-30T05:59:32;19.83;;;9.63;;
74658;SDS011;63186;51.204;6.536;2022-09-30T06:01:58;17.03;;;10.13;;
74658;SDS011;63186;51.204;6.536;2022-09-30T06:04:23;20.80;;;9.87;;
74658;SDS011;63186;51.204;6.536;2022-09-30T06:06:48;18.83;;;10.37;;
74658;SDS011;63186;51.204;6.536;2022-09-30T06:09:14;17.75;;;9.98;;
74658;SDS011;63186;51.204;6.536;2022-09-30T06:11:40;17.30;;;10.38;;
74658;SDS011;63186;51.204;6.536;2022-09-30T06:14:06;21.65;;;11.00;;
74658;SDS011;63186;51.204;6.536;2022-09-30T06:16:32;17.80;;;10.70;;
74658;SDS011;63186;51.204;6.536;2022-09-30T06:18:57;20.15;;;10.27;;
74658;SDS011;63186;51.204;6.536;2022-09-30T06:21:23;17.92;;;10.68;;
74658;SDS011;63186;51.204;6.536;2022-09-30T06:23:49;16.40;;;8.90;;
74658;SDS011;63186;51.204;6.536;2022-09-30T06:26:14;13.00;;;8.07;;
74658;SDS011;63186;51.204;6.536;2022-09-30T06:28:40;13.80;;;8.15;;
74658;SDS011;63186;51.204;6.536;2022-09-30T06:31:06;11.98;;;7.75;;
74658;SDS011;63186;51.204;6.536;2022-09-30T06:33:32;12.55;;;8.13;;
74658;SDS011;63186;51.204;6.536;2022-09-30T06:35:58;11.10;;;6.97;;
74658;SDS011;63186;51.204;6.536;2022-09-30T06:38:28;11.80;;;6.60;;
74658;SDS011;63186;51.204;6.536;2022-09-30T06:40:53;11.80;;;7.05;;
74658;SDS011;63186;51.204;6.536;2022-09-30T06:43:20;11.93;;;8.68;;
74658;SDS011;63186;51.204;6.536;2022-09-30T06:45:46;11.98;;;7.15;;
74658;SDS011;63186;51.204;6.536;2022-09-30T06:48:13;11.38;;;6.80;;
74658;SDS011;63186;51.204;6.536;2022-09-30T06:50:40;12.73;;;7.78;;
74658;SDS011;63186;51.204;6.536;2022-09-30T06:53:06;12.95;;;7.68;;
74658;SDS011;63186;51.204;6.536;2022-09-30T06:55:33;14.15;;;7.13;;
74658;SDS011;63186;51.204;6.536;2022-09-30T06:58:02;12.13;;;7.13;;
74658;SDS011;63186;51.204;6.536;2022-09-30T07:00:28;12.43;;;6.75;;
74658;SDS011;63186;51.204;6.536;2022-09-30T07:02:54;15.07;;;6.90;;
74658;SDS011;63186;51.204;6.536;2022-09-30T07:05:20;12.30;;;6.97;;
74658;SDS011;63186;51.204;6.536;2022-09-30T07:07:46;11.85;;;6.18;;
74658;SDS011;63186;51.204;6.536;2022-09-30T07:10:13;13.95;;;6.93;;
74658;SDS011;63186;51.204;6.536;2022-09-30T07:12:38;11.50;;;6.70;;
74658;SDS011;63186;51.204;6.536;2022-09-30T07:15:05;14.23;;;6.45;;
74658;SDS011;63186;51.204;6.536;2022-09-30T07:17:30;12.00;;;6.78;;
74658;SDS011;63186;51.204;6.536;2022-09-30T07:19:56;13.67;;;6.63;;
74658;SDS011;63186;51.204;6.536;2022-09-30T07:22:22;11.23;;;6.15;;
74658;SDS011;63186;51.204;6.536;2022-09-30T07:24:58;12.13;;;5.82;;
74658;SDS011;63186;51.204;6.536;2022-09-30T07:27:26;13.25;;;6.18;;
74658;SDS011;63186;51.204;6.536;2022-09-30T07:29:52;14.77;;;7.15;;
74658;SDS011;63186;51.204;6.536;2022-09-30T07:32:18;11.40;;;7.25;;
74658;SDS011;63186;51.204;6.536;2022-09-30T07:34:45;11.85;;;6.40;;
74658;SDS011;63186;51.204;6.536;2022-09-30T07:37:11;11.60;;;6.67;;
74658;SDS011;63186;51.204;6.536;2022-09-30T07:39:39;12.50;;;6.70;;
74658;SDS011;63186;51.204;6.536;2022-09-30T07:42:05;10.40;;;5.80;;
74658;SDS011;63186;51.204;6.536;2022-09-30T07:44:31;10.60;;;6.07;;
74658;SDS011;63186;51.204;6.536;2022-09-30T07:46:57;12.25;;;5.63;;
74658;SDS011;63186;51.204;6.536;2022-09-30T07:49:22;13.05;;;7.22;;
74658;SDS011;63186;51.204;6.536;2022-09-30T07:51:51;11.10;;;5.88;;
74658;SDS011;63186;51.204;6.536;2022-09-30T07:54:19;9.73;;;5.93;;
74658;SDS011;63186;51.204;6.536;2022-09-30T07:56:46;12.60;;;6.90;;
74658;SDS011;63186;51.204;6.536;2022-09-30T07:59:13;12.13;;;6.38;;
74658;SDS011;63186;51.204;6.536;2022-09-30T08:01:39;11.02;;;6.75;;
74658;SDS011;63186;51.204;6.536;2022-09-30T08:04:05;9.15;;;5.47;;
74658;SDS011;63186;51.204;6.536;2022-09-30T08:06:35;13.20;;;7.03;;
74658;SDS011;63186;51.204;6.536;2022-09-30T08:09:02;11.77;;;6.65;;
74658;SDS011;63186;51.204;6.536;2022-09-30T08:11:31;11.73;;;6.90;;
74658;SDS011;63186;51.204;6.536;2022-09-30T08:13:57;14.30;;;7.15;;
74658;SDS011;63186;51.204;6.536;2022-09-30T08:16:23;12.60;;;7.47;;
74658;SDS011;63186;51.204;6.536;2022-09-30T08:19:00;11.88;;;7.47;;
74658;SDS011;63186;51.204;6.536;2022-09-30T08:21:26;13.48;;;8.07;;
74658;SDS011;63186;51.204;6.536;2022-09-30T08:23:52;14.25;;;8.30;;
74658;SDS011;63186;51.204;6.536;2022-09-30T08:26:18;15.80;;;8.57;;
74658;SDS011;63186;51.204;6.536;2022-09-30T08:28:43;16.02;;;8.23;;
74658;SDS011;63186;51.204;6.536;2022-09-30T08:31:13;18.65;;;8.40;;
74658;SDS011;63186;51.204;6.536;2022-09-30T08:33:40;15.32;;;8.15;;
74658;SDS011;63186;51.204;6.536;2022-09-30T08:36:10;15.23;;;8.10;;
74658;SDS011;63186;51.204;6.536;2022-09-30T08:38:46;15.73;;;8.65;;
74658;SDS011;63186;51.204;6.536;2022-09-30T08:44:02;16.13;;;8.60;;
74658;SDS011;63186;51.204;6.536;2022-09-30T08:47:00;16.45;;;8.70;;
74658;SDS011;63186;51.204;6.536;2022-09-30T08:52:58;16.23;;;9.35;;
74658;SDS011;63186;51.204;6.536;2022-09-30T08:55:27;18.05;;;9.98;;
74658;SDS011;63186;51.204;6.536;2022-09-30T08:57:57;16.00;;;10.10;;
74658;SDS011;63186;51.204;6.536;2022-09-30T09:00:23;15.90;;;9.02;;
74658;SDS011;63186;51.204;6.536;2022-09-30T09:02:52;15.60;;;9.30;;
74658;SDS011;63186;51.204;6.536;2022-09-30T09:10:56;17.25;;;8.90;;
74658;SDS011;63186;51.204;6.536;2022-09-30T09:16:21;13.90;;;8.50;;
74658;SDS011;63186;51.204;6.536;2022-09-30T09:19:07;13.73;;;9.68;;
74658;SDS011;63186;51.204;6.536;2022-09-30T09:24:14;13.23;;;8.70;;
74658;SDS011;63186;51.204;6.536;2022-09-30T09:26:43;16.02;;;8.32;;
74658;SDS011;63186;51.204;6.536;2022-09-30T09:32:03;13.48;;;8.57;;
74658;SDS011;63186;51.204;6.536;2022-09-30T09:34:36;15.15;;;8.85;;
74658;SDS011;63186;51.204;6.536;2022-09-30T09:44:59;15.15;;;10.20;;
74658;SDS011;63186;51.204;6.536;2022-09-30T09:47:28;16.08;;;9.80;;
74658;SDS011;63186;51.204;6.536;2022-09-30T09:55:08;15.13;;;8.73;;
74658;SDS011;63186;51.204;6.536;2022-09-30T09:57:36;13.65;;;9.20;;
74658;SDS011;63186;51.204;6.536;2022-09-30T10:05:24;13.35;;;9.23;;
74658;SDS011;63186;51.204;6.536;2022-09-30T10:07:51;12.82;;;9.02;;
74658;SDS011;63186;51.204;6.536;2022-09-30T10:11:00;14.95;;;8.98;;
74658;SDS011;63186;51.204;6.536;2022-09-30T10:15:56;13.50;;;8.68;;
74658;SDS011;63186;51.204;6.536;2022-09-30T10:18:33;13.88;;;9.00;;
74658;SDS011;63186;51.204;6.536;2022-09-30T10:21:06;15.52;;;8.20;;
74658;SDS011;63186;51.204;6.536;2022-09-30T10:23:44;13.15;;;8.73;;
74658;SDS011;63186;51.204;6.536;2022-09-30T10:31:23;10.27;;;7.68;;
74658;SDS011;63186;51.204;6.536;2022-09-30T10:33:56;12.65;;;8.15;;
74658;SDS011;63186;51.204;6.536;2022-09-30T10:36:29;10.88;;;7.57;;
74658;SDS011;63186;51.204;6.536;2022-09-30T10:39:02;17.05;;;8.55;;
74658;SDS011;63186;51.204;6.536;2022-09-30T10:41:31;14.65;;;8.48;;
74658;SDS011;63186;51.204;6.536;2022-09-30T10:44:02;10.32;;;7.47;;
74658;SDS011;63186;51.204;6.536;2022-09-30T10:46:32;12.00;;;7.30;;
74658;SDS011;63186;51.204;6.536;2022-09-30T10:49:07;8.80;;;5.47;;
74658;SDS011;63186;51.204;6.536;2022-09-30T10:51:35;9.10;;;5.25;;
74658;SDS011;63186;51.204;6.536;2022-09-30T10:54:02;9.23;;;4.80;;
74658;SDS011;63186;51.204;6.536;2022-09-30T10:56:34;9.43;;;5.60;;
74658;SDS011;63186;51.204;6.536;2022-09-30T10:59:03;10.13;;;5.90;;
74658;SDS011;63186;51.204;6.536;2022-09-30T11:01:34;11.40;;;7.32;;
74658;SDS011;63186;51.204;6.536;2022-09-30T11:04:06;11.43;;;6.70;;
74658;SDS011;63186;51.204;6.536;2022-09-30T11:06:39;11.50;;;6.72;;
74658;SDS011;63186;51.204;6.536;2022-09-30T11:09:16;10.25;;;6.55;;
74658;SDS011;63186;51.204;6.536;2022-09-30T11:11:52;11.18;;;7.43;;
74658;SDS011;63186;51.204;6.536;2022-09-30T11:14:34;10.02;;;6.80;;
74658;SDS011;63186;51.204;6.536;2022-09-30T11:17:24;9.07;;;5.75;;
74658;SDS011;63186;51.204;6.536;2022-09-30T11:38:49;8.48;;;4.85;;
74658;SDS011;63186;51.204;6.536;2022-09-30T11:41:42;9.25;;;5.65;;
74658;SDS011;63186;51.204;6.536;2022-09-30T11:46:58;9.80;;;5.47;;
74658;SDS011;63186;51.204;6.536;2022-09-30T11:49:36;9.35;;;4.85;;
74658;SDS011;63186;51.204;6.536;2022-09-30T11:55:32;10.43;;;4.90;;
74658;SDS011;63186;51.204;6.536;2022-09-30T11:58:10;9.38;;;4.50;;
74658;SDS011;63186;51.204;6.536;2022-09-30T12:00:41;7.03;;;3.90;;
74658;SDS011;63186;51.204;6.536;2022-09-30T12:03:13;9.55;;;4.60;;
74658;SDS011;63186;51.204;6.536;2022-09-30T12:06:28;8.15;;;5.35;;
74658;SDS011;63186;51.204;6.536;2022-09-30T12:08:39;9.13;;;4.78;;
74658;SDS011;63186;51.204;6.536;2022-09-30T12:11:14;9.60;;;4.75;;
74658;SDS011;63186;51.204;6.536;2022-09-30T12:13:49;7.32;;;4.32;;
74658;SDS011;63186;51.204;6.536;2022-09-30T12:16:24;8.27;;;4.55;;
74658;SDS011;63186;51.204;6.536;2022-09-30T12:18:56;8.80;;;5.30;;
74658;SDS011;63186;51.204;6.536;2022-09-30T12:21:31;10.48;;;4.85;;
74658;SDS011;63186;51.204;6.536;2022-09-30T12:24:20;8.00;;;5.03;;
74658;SDS011;63186;51.204;6.536;2022-09-30T12:26:51;8.30;;;4.70;;
74658;SDS011;63186;51.204;6.536;2022-09-30T12:29:31;9.15;;;5.03;;
74658;SDS011;63186;51.204;6.536;2022-09-30T12:32:31;8.13;;;5.20;;
74658;SDS011;63186;51.204;6.536;2022-09-30T12:47:16;8.50;;;5.03;;
74658;SDS011;63186;51.204;6.536;2022-09-30T12:49:51;9.68;;;5.57;;
74658;SDS011;63186;51.204;6.536;2022-09-30T12:52:21;11.88;;;6.65;;
74658;SDS011;63186;51.204;6.536;2022-09-30T12:54:48;11.35;;;6.10;;
74658;SDS011;63186;51.204;6.536;2022-09-30T12:57:27;10.25;;;5.85;;
74658;SDS011;63186;51.204;6.536;2022-09-30T13:00:00;8.80;;;5.22;;
74658;SDS011;63186;51.204;6.536;2022-09-30T13:10:30;10.70;;;5.93;;
74658;SDS011;63186;51.204;6.536;2022-09-30T13:23:41;8.13;;;5.13;;
74658;SDS011;63186;51.204;6.536;2022-09-30T13:31:28;8.77;;;4.40;;
74658;SDS011;63186;51.204;6.536;2022-09-30T13:36:26;9.13;;;4.55;;
74658;SDS011;63186;51.204;6.536;2022-09-30T13:41:42;9.95;;;5.07;;
74658;SDS011;63186;51.204;6.536;2022-09-30T13:44:15;10.57;;;5.50;;
74658;SDS011;63186;51.204;6.536;2022-09-30T13:46:48;9.35;;;4.90;;
74658;SDS011;63186;51.204;6.536;2022-09-30T13:51:48;7.40;;;4.20;;
74658;SDS011;63186;51.204;6.536;2022-09-30T13:54:28;8.15;;;4.97;;
74658;SDS011;63186;51.204;6.536;2022-09-30T13:56:58;8.07;;;4.80;;
74658;SDS011;63186;51.204;6.536;2022-09-30T14:04:59;8.38;;;4.75;;
74658;SDS011;63186;51.204;6.536;2022-09-30T14:18:49;8.45;;;4.25;;
74658;SDS011;63186;51.204;6.536;2022-09-30T14:21:34;8.93;;;4.15;;
74658;SDS011;63186;51.204;6.536;2022-09-30T14:24:10;6.82;;;4.15;;
74658;SDS011;63186;51.204;6.536;2022-09-30T14:29:28;6.70;;;3.58;;
74658;SDS011;63186;51.204;6.536;2022-09-30T14:32:16;6.93;;;3.58;;
74658;SDS011;63186;51.204;6.536;2022-09-30T14:34:44;6.80;;;3.33;;
74658;SDS011;63186;51.204;6.536;2022-09-30T14:37:57;5.95;;;3.20;;
74658;SDS011;63186;51.204;6.536;2022-09-30T14:40:14;5.28;;;2.20;;
74658;SDS011;63186;51.204;6.536;2022-09-30T14:45:12;5.72;;;2.72;;
74658;SDS011;63186;51.204;6.536;2022-09-30T14:47:43;5.82;;;2.80;;
74658;SDS011;63186;51.204;6.536;2022-09-30T14:50:18;6.53;;;2.58;;
74658;SDS011;63186;51.204;6.536;2022-09-30T14:52:50;4.18;;;2.20;;
74658;SDS011;63186;51.204;6.536;2022-09-30T14:55:27;6.47;;;2.40;;
74658;SDS011;63186;51.204;6.536;2022-09-30T14:58:11;5.80;;;2.58;;
74658;SDS011;63186;51.204;6.536;2022-09-30T15:00:55;4.38;;;2.20;;
74658;SDS011;63186;51.204;6.536;2022-09-30T15:03:22;3.67;;;1.95;;
74658;SDS011;63186;51.204;6.536;2022-09-30T15:05:48;5.70;;;2.17;;
74658;SDS011;63186;51.204;6.536;2022-09-30T15:08:17;6.25;;;2.33;;
74658;SDS011;63186;51.204;6.536;2022-09-30T15:10:45;5.28;;;2.20;;
74658;SDS011;63186;51.204;6.536;2022-09-30T15:13:12;5.43;;;2.17;;
74658;SDS011;63186;51.204;6.536;2022-09-30T15:15:38;5.80;;;2.10;;
74658;SDS011;63186;51.204;6.536;2022-09-30T15:20:49;6.30;;;2.80;;
74658;SDS011;63186;51.204;6.536;2022-09-30T15:23:23;5.72;;;2.20;;
74658;SDS011;63186;51.204;6.536;2022-09-30T15:25:51;7.05;;;2.65;;
74658;SDS011;63186;51.204;6.536;2022-09-30T15:28:17;4.20;;;2.30;;
74658;SDS011;63186;51.204;6.536;2022-09-30T15:30:43;5.83;;;2.70;;
74658;SDS011;63186;51.204;6.536;2022-09-30T15:33:14;5.43;;;2.42;;
74658;SDS011;63186;51.204;6.536;2022-09-30T15:35:42;5.30;;;2.40;;
74658;SDS011;63186;51.204;6.536;2022-09-30T15:38:09;5.47;;;2.00;;
74658;SDS011;63186;51.204;6.536;2022-09-30T15:40:44;5.32;;;1.98;;
74658;SDS011;63186;51.204;6.536;2022-09-30T15:44:02;3.72;;;1.83;;
74658;SDS011;63186;51.204;6.536;2022-09-30T15:46:14;3.97;;;1.60;;
74658;SDS011;63186;51.204;6.536;2022-09-30T15:48:40;2.90;;;1.40;;
74658;SDS011;63186;51.204;6.536;2022-09-30T15:53:47;3.03;;;1.50;;
74658;SDS011;63186;51.204;6.536;2022-09-30T15:58:53;4.45;;;1.77;;
74658;SDS011;63186;51.204;6.536;2022-09-30T16:03:58;3.72;;;2.33;;
74658;SDS011;63186;51.204;6.536;2022-09-30T16:09:01;5.45;;;1.58;;
74658;SDS011;63186;51.204;6.536;2022-09-30T16:11:32;5.55;;;1.77;;
74658;SDS011;63186;51.204;6.536;2022-09-30T16:14:00;4.28;;;1.30;;
74658;SDS011;63186;51.204;6.536;2022-09-30T16:16:29;4.43;;;1.70;;
74658;SDS011;63186;51.204;6.536;2022-09-30T16:18:56;3.83;;;1.75;;
74658;SDS011;63186;51.204;6.536;2022-09-30T16:21:39;9.27;;;3.63;;
74658;SDS011;63186;51.204;6.536;2022-09-30T16:26:46;31.75;;;15.75;;
74658;SDS011;63186;51.204;6.536;2022-09-30T16:29:15;6.28;;;2.55;;
74658;SDS011;63186;51.204;6.536;2022-09-30T16:31:41;35.17;;;14.65;;
74658;SDS011;63186;51.204;6.536;2022-09-30T16:34:10;10.10;;;3.67;;
74658;SDS011;63186;51.204;6.536;2022-09-30T16:36:42;4.05;;;1.45;;
74658;SDS011;63186;51.204;6.536;2022-09-30T16:39:08;4.90;;;2.30;;
74658;SDS011;63186;51.204;6.536;2022-09-30T16:41:36;2.08;;;1.30;;
74658;SDS011;63186;51.204;6.536;2022-09-30T16:44:02;3.17;;;1.50;;
74658;SDS011;63186;51.204;6.536;2022-09-30T16:46:27;3.95;;;1.40;;
74658;SDS011;63186;51.204;6.536;2022-09-30T16:48:52;2.50;;;1.40;;
74658;SDS011;63186;51.204;6.536;2022-09-30T16:51:18;6.13;;;1.90;;
74658;SDS011;63186;51.204;6.536;2022-09-30T16:53:43;5.33;;;1.83;;
74658;SDS011;63186;51.204;6.536;2022-09-30T16:56:15;2.95;;;1.60;;
74658;SDS011;63186;51.204;6.536;2022-09-30T16:58:43;3.22;;;1.58;;
74658;SDS011;63186;51.204;6.536;2022-09-30T17:01:17;2.72;;;1.40;;
74658;SDS011;63186;51.204;6.536;2022-09-30T17:03:44;3.55;;;1.70;;
74658;SDS011;63186;51.204;6.536;2022-09-30T17:06:10;5.07;;;1.73;;
74658;SDS011;63186;51.204;6.536;2022-09-30T17:08:36;2.72;;;1.33;;
74658;SDS011;63186;51.204;6.536;2022-09-30T17:11:01;3.67;;;1.40;;
74658;SDS011;63186;51.204;6.536;2022-09-30T17:13:27;3.20;;;1.50;;
74658;SDS011;63186;51.204;6.536;2022-09-30T17:15:52;2.95;;;1.40;;
74658;SDS011;63186;51.204;6.536;2022-09-30T17:18:18;3.63;;;1.42;;
74658;SDS011;63186;51.204;6.536;2022-09-30T17:20:45;2.97;;;1.50;;
74658;SDS011;63186;51.204;6.536;2022-09-30T17:23:16;5.68;;;1.40;;
74658;SDS011;63186;51.204;6.536;2022-09-30T17:25:41;3.55;;;1.60;;
74658;SDS011;63186;51.204;6.536;2022-09-30T17:28:08;4.03;;;1.60;;
74658;SDS011;63186;51.204;6.536;2022-09-30T17:30:34;5.30;;;2.05;;
74658;SDS011;63186;51.204;6.536;2022-09-30T17:33:01;4.70;;;2.10;;
74658;SDS011;63186;51.204;6.536;2022-09-30T17:35:26;4.53;;;2.03;;
74658;SDS011;63186;51.204;6.536;2022-09-30T17:37:52;4.43;;;2.07;;
74658;SDS011;63186;51.204;6.536;2022-09-30T17:40:17;4.20;;;1.93;;
74658;SDS011;63186;51.204;6.536;2022-09-30T17:43:01;6.25;;;2.53;;
74658;SDS011;63186;51.204;6.536;2022-09-30T17:45:34;4.05;;;1.80;;
74658;SDS011;63186;51.204;6.536;2022-09-30T17:48:01;5.63;;;2.10;;
74658;SDS011;63186;51.204;6.536;2022-09-30T17:50:27;4.30;;;2.13;;
74658;SDS011;63186;51.204;6.536;2022-09-30T17:52:52;5.03;;;2.33;;
74658;SDS011;63186;51.204;6.536;2022-09-30T17:55:18;6.85;;;3.08;;
74658;SDS011;63186;51.204;6.536;2022-09-30T17:57:43;4.13;;;1.80;;
74658;SDS011;63186;51.204;6.536;2022-09-30T18:00:09;2.77;;;1.53;;
74658;SDS011;63186;51.204;6.536;2022-09-30T18:02:36;4.85;;;1.60;;
74658;SDS011;63186;51.204;6.536;2022-09-30T18:05:05;2.92;;;1.42;;
74658;SDS011;63186;51.204;6.536;2022-09-30T18:07:31;4.65;;;1.50;;
74658;SDS011;63186;51.204;6.536;2022-09-30T18:09:56;4.63;;;1.50;;
74658;SDS011;63186;51.204;6.536;2022-09-30T18:12:21;2.67;;;1.57;;
74658;SDS011;63186;51.204;6.536;2022-09-30T18:14:47;5.00;;;1.57;;
74658;SDS011;63186;51.204;6.536;2022-09-30T18:17:12;5.50;;;1.90;;
74658;SDS011;63186;51.204;6.536;2022-09-30T18:19:37;3.80;;;1.53;;
74658;SDS011;63186;51.204;6.536;2022-09-30T18:22:03;4.67;;;1.60;;
74658;SDS011;63186;51.204;6.536;2022-09-30T18:24:28;4.13;;;1.73;;
74658;SDS011;63186;51.204;6.536;2022-09-30T18:27:12;3.30;;;1.70;;